LFKJ/AJA METAR and TAF weather

Enter ICAO airport designator
Station Type Date Time Source
LFKJ METAR 2024/04/15 09:00 UTC NOAA

LFKJ 150900Z AUTO VRB02KT CAVOK 19/13 Q1019 NOSIG


Station Type Date Time Source
LFKJ Decoded METAR 2024/04/15 09:00 UTC NOAA

Ajaccio, France (LFKJ) 41-55N 008-48E 9M
Apr 15, 2024 - 05:00 AM EDT / 2024.04.15 0900 UTC
Wind: Variable at 2 MPH (2 KT):0
Visibility: greater than 7 mile(s):0
Temperature: 66 F (19 C)
Dew Point: 55 F (13 C)
Relative Humidity: 68%
Pressure (altimeter): 30.09 in. Hg (1019 hPa)
ob: LFKJ 150900Z AUTO VRB02KT CAVOK 19/13 Q1019 NOSIG
cycle: 9

Station Type Date Time Source
LFKJ TAF 2024/04/15 09:42 UTC NOAA